Terminal Aerodrome Forecast
Issued by NWS

Home | Current Version | Previous Version | Graphics & Text | Print | Product List | Glossary On
Versions: 1 2 3 4 5 6 7 8 9 10 11 12 13 14 15 16 17 18 19 20 21 22 23 24 25 26 27 28
000
FTUS43 KGRB 291100
TAFRHI
TAF
KRHI 291137Z 2912/3012 20012G20KT P6SM OVC250 WS010/22040KT
     FM291300 19017G26KT P6SM SCT100 OVC250
     FM291400 19018G27KT 3SM -PLSN SCT010 OVC028
      TEMPO 2914/2916 3/4SM -SN SCT005 OVC010
     FM291600 21018G25KT P6SM -RASN BKN015
     FM292200 28020G30KT P6SM BKN030
     FM300100 29010KT P6SM SCT050=

USA.gov is the U.S. government's official web portal to all federal, state and local government web resources and services.